Time;durP1;ratioP1;P1;durP2;ratioP2;P2;SDS_P1;SDS_P2;PMS_P1;PMS_P2;Temp;Humidity;BMP_temperature;BMP_pressure;BME280_temperature;BME280_humidity;BME280_pressure;Samples;Min_cycle;Max_cycle;Signal;HPM_P1;HPM_P2
2022/06/20 00:02:00;;;;;;;7.68;2.60;;;;;;;;;;4989505;28;20043;-77
2022/06/20 00:04:26;;;;;;;6.13;2.67;;;;;;;;;;4974898;28;20122;-77
2022/06/20 00:06:52;;;;;;;5.88;2.35;;;;;;;;;;4972158;28;20042;-77
2022/06/20 00:09:18;;;;;;;6.65;2.67;;;;;;;;;;4973864;28;20050;-77
2022/06/20 00:11:46;;;;;;;5.72;2.55;;;;;;;;;;4973312;28;20046;-77
2022/06/20 00:14:19;;;;;;;5.57;2.53;;;;;;;;;;4974672;28;20047;-77
2022/06/20 00:16:45;;;;;;;9.52;2.70;;;;;;;;;;4956958;28;20043;-77
2022/06/20 00:19:12;;;;;;;5.30;2.30;;;;;;;;;;4974043;28;20139;-77
2022/06/20 00:21:38;;;;;;;5.10;2.35;;;;;;;;;;4973585;28;20141;-77
2022/06/20 00:24:04;;;;;;;6.95;2.55;;;;;;;;;;4974660;28;20066;-77
2022/06/20 00:26:30;;;;;;;5.75;2.60;;;;;;;;;;4974818;28;20071;-77
2022/06/20 00:28:57;;;;;;;5.90;2.45;;;;;;;;;;4972576;28;20050;-77
2022/06/20 00:31:23;;;;;;;6.55;2.53;;;;;;;;;;4955541;29;20054;-76
2022/06/20 00:33:49;;;;;;;6.38;2.80;;;;;;;;;;4970704;28;20042;-77
2022/06/20 00:36:15;;;;;;;4.50;2.40;;;;;;;;;;4973161;28;20050;-77
2022/06/20 00:38:43;;;;;;;7.82;2.85;;;;;;;;;;4987427;28;20043;-77
2022/06/20 00:41:23;;;;;;;7.47;2.58;;;;;;;;;;4974300;28;20051;-77
2022/06/20 00:43:51;;;;;;;6.20;2.40;;;;;;;;;;4972867;28;20041;-76
2022/06/20 00:46:19;;;;;;;6.32;2.45;;;;;;;;;;4971984;28;20051;-77
2022/06/20 00:48:47;;;;;;;5.07;2.30;;;;;;;;;;4973516;28;20079;-77
2022/06/20 00:51:18;;;;;;;7.72;2.42;;;;;;;;;;4970886;28;20069;-77
2022/06/20 00:53:54;;;;;;;6.20;2.40;;;;;;;;;;4973245;28;20457;-76
2022/06/20 00:56:20;;;;;;;5.53;2.40;;;;;;;;;;4974310;28;20043;-76
2022/06/20 00:58:49;;;;;;;3.83;2.60;;;;;;;;;;4973692;28;20050;-76
2022/06/20 01:01:17;;;;;;;7.97;2.90;;;;;;;;;;4973259;28;20057;-77
2022/06/20 01:03:46;;;;;;;6.43;2.92;;;;;;;;;;4971796;28;20125;-77
2022/06/20 01:06:14;;;;;;;11.05;3.30;;;;;;;;;;4973616;28;20089;-77
2022/06/20 01:08:45;;;;;;;9.85;2.80;;;;;;;;;;4972807;28;20042;-76
2022/06/20 01:11:26;;;;;;;6.72;3.20;;;;;;;;;;4974054;28;20038;-77
2022/06/20 01:13:52;;;;;;;8.07;3.13;;;;;;;;;;4965731;28;20082;-78
2022/06/20 01:16:36;;;;;;;5.43;3.03;;;;;;;;;;4958340;28;20089;-77
2022/06/20 01:19:07;;;;;;;5.40;2.88;;;;;;;;;;4957544;28;20086;-76
2022/06/20 01:21:34;;;;;;;9.23;3.70;;;;;;;;;;4956374;28;20047;-78
2022/06/20 01:24:00;;;;;;;8.98;3.88;;;;;;;;;;4964588;28;20042;-77
2022/06/20 01:26:41;;;;;;;11.20;3.92;;;;;;;;;;4973454;28;20047;-77
2022/06/20 01:29:09;;;;;;;7.90;3.72;;;;;;;;;;4972125;28;20397;-76
2022/06/20 01:31:38;;;;;;;9.85;3.40;;;;;;;;;;4973190;28;20078;-76
2022/06/20 01:34:04;;;;;;;10.07;4.10;;;;;;;;;;4973697;28;20051;-76
2022/06/20 01:39:18;;;;;;;9.80;3.58;;;;;;;;;;4970061;28;20047;-77
2022/06/20 01:44:32;;;;;;;7.57;3.88;;;;;;;;;;4972960;28;20504;-76
2022/06/20 01:46:58;;;;;;;7.47;3.92;;;;;;;;;;4972694;28;20523;-77
2022/06/20 01:49:25;;;;;;;7.10;3.45;;;;;;;;;;4972408;28;20038;-77
2022/06/20 01:51:53;;;;;;;6.45;3.63;;;;;;;;;;4974836;28;20055;-78
2022/06/20 01:54:20;;;;;;;6.68;3.50;;;;;;;;;;4975300;28;20051;-77
2022/06/20 01:56:47;;;;;;;8.15;3.70;;;;;;;;;;4976876;28;20055;-77
2022/06/20 01:59:18;;;;;;;10.57;4.10;;;;;;;;;;4976549;28;20046;-76
2022/06/20 02:01:45;;;;;;;9.55;3.83;;;;;;;;;;4976591;28;20534;-77
2022/06/20 02:04:14;;;;;;;8.00;3.53;;;;;;;;;;4976979;28;20053;-76
2022/06/20 02:06:41;;;;;;;9.70;3.88;;;;;;;;;;4976796;28;20464;-75
2022/06/20 02:09:07;;;;;;;10.27;4.07;;;;;;;;;;4969201;28;20047;-76
2022/06/20 02:11:41;;;;;;;7.25;3.72;;;;;;;;;;4958030;28;20047;-77
2022/06/20 02:14:10;;;;;;;9.95;3.97;;;;;;;;;;4976125;28;20069;-77
2022/06/20 02:16:39;;;;;;;7.97;4.55;;;;;;;;;;4977601;28;20051;-77
2022/06/20 02:19:07;;;;;;;6.95;3.90;;;;;;;;;;4976517;28;20050;-77
2022/06/20 02:21:34;;;;;;;8.45;4.28;;;;;;;;;;4976885;28;20074;-77
2022/06/20 02:24:05;;;;;;;5.40;4.05;;;;;;;;;;4975448;28;20042;-77
2022/06/20 02:26:32;;;;;;;10.98;3.92;;;;;;;;;;4957441;28;20047;-78
2022/06/20 02:29:04;;;;;;;7.95;3.63;;;;;;;;;;4975595;28;20047;-76
2022/06/20 02:31:31;;;;;;;8.43;4.30;;;;;;;;;;4977038;28;20078;-76
2022/06/20 02:33:57;;;;;;;8.18;3.92;;;;;;;;;;4975787;28;20058;-77
2022/06/20 02:36:23;;;;;;;7.53;3.80;;;;;;;;;;4975344;28;20376;-77
2022/06/20 02:38:49;;;;;;;8.02;3.78;;;;;;;;;;4990516;28;20049;-76
2022/06/20 02:41:18;;;;;;;9.73;4.20;;;;;;;;;;4976045;28;20085;-76
2022/06/20 02:43:49;;;;;;;8.35;4.07;;;;;;;;;;4975966;28;20050;-77
2022/06/20 02:46:18;;;;;;;9.35;3.85;;;;;;;;;;4975217;28;20452;-76
2022/06/20 02:48:49;;;;;;;7.88;5.03;;;;;;;;;;4976140;28;20105;-77
2022/06/20 02:51:20;;;;;;;8.73;4.10;;;;;;;;;;4975797;28;20039;-76
2022/06/20 02:53:48;;;;;;;11.85;4.22;;;;;;;;;;4974520;28;20062;-77
2022/06/20 02:56:21;;;;;;;10.88;4.28;;;;;;;;;;4975862;28;20039;-77
2022/06/20 02:58:50;;;;;;;6.60;3.90;;;;;;;;;;4975672;28;20042;-77
2022/06/20 03:01:25;;;;;;;8.23;4.05;;;;;;;;;;4976068;28;20484;-77
2022/06/20 03:03:52;;;;;;;8.73;4.10;;;;;;;;;;4974912;28;20361;-76
2022/06/20 03:06:27;;;;;;;9.38;4.70;;;;;;;;;;4974881;28;20046;-77
2022/06/20 03:08:54;;;;;;;10.20;4.63;;;;;;;;;;4974307;28;20046;-77
2022/06/20 03:11:20;;;;;;;11.60;4.50;;;;;;;;;;4975646;28;20562;-77
2022/06/20 03:13:47;;;;;;;10.50;4.85;;;;;;;;;;4975621;28;20047;-77
2022/06/20 03:16:13;;;;;;;8.68;4.43;;;;;;;;;;4975475;28;20381;-77
2022/06/20 03:18:43;;;;;;;8.77;5.07;;;;;;;;;;4975697;28;20045;-77
2022/06/20 03:21:09;;;;;;;8.82;4.65;;;;;;;;;;4966067;28;20047;-78
2022/06/20 03:23:36;;;;;;;9.35;4.80;;;;;;;;;;4971253;28;20513;-77
2022/06/20 03:26:03;;;;;;;10.48;4.60;;;;;;;;;;4976043;28;20070;-77
2022/06/20 03:28:31;;;;;;;9.13;4.72;;;;;;;;;;4975055;28;20043;-77
2022/06/20 03:30:57;;;;;;;9.32;4.80;;;;;;;;;;4975301;28;20129;-77
2022/06/20 03:33:24;;;;;;;9.95;4.60;;;;;;;;;;4974991;28;20101;-77
2022/06/20 03:36:09;;;;;;;12.73;4.68;;;;;;;;;;4989501;28;20043;-77
2022/06/20 03:38:37;;;;;;;8.13;4.82;;;;;;;;;;4974458;28;20519;-77
2022/06/20 03:41:05;;;;;;;9.70;5.20;;;;;;;;;;4975648;28;20042;-77
2022/06/20 03:43:31;;;;;;;9.27;4.65;;;;;;;;;;4973566;28;20043;-77
2022/06/20 03:46:01;;;;;;;8.55;4.53;;;;;;;;;;4973365;28;20531;-77
2022/06/20 03:48:32;;;;;;;11.55;5.18;;;;;;;;;;4974630;28;20046;-78
2022/06/20 03:51:01;;;;;;;12.93;5.00;;;;;;;;;;4974615;28;20042;-77
2022/06/20 03:53:42;;;;;;;11.52;5.13;;;;;;;;;;4974774;28;20562;-77
2022/06/20 03:56:13;;;;;;;9.80;4.97;;;;;;;;;;4975338;28;20133;-77
2022/06/20 03:58:42;;;;;;;10.90;4.82;;;;;;;;;;4974733;28;20051;-77
2022/06/20 04:01:13;;;;;;;11.32;5.10;;;;;;;;;;4975907;28;20046;-77
2022/06/20 04:03:39;;;;;;;10.85;4.82;;;;;;;;;;4957509;28;20080;-77
2022/06/20 04:06:27;;;;;;;9.75;4.90;;;;;;;;;;4974751;28;20038;-76
2022/06/20 04:11:42;;;;;;;11.93;5.07;;;;;;;;;;4959370;28;20055;-77
2022/06/20 04:14:19;;;;;;;11.48;5.10;;;;;;;;;;4973971;28;20039;-77
2022/06/20 04:16:49;;;;;;;12.93;5.50;;;;;;;;;;4955840;28;20386;-77
2022/06/20 04:19:44;;;;;;;15.57;5.80;;;;;;;;;;4955692;28;20069;-77
2022/06/20 04:22:17;;;;;;;11.60;5.43;;;;;;;;;;4945611;28;20086;-77
2022/06/20 04:24:50;;;;;;;9.73;5.00;;;;;;;;;;4974583;28;20089;-77
2022/06/20 04:27:24;;;;;;;12.15;5.50;;;;;;;;;;4973207;28;20488;-77
2022/06/20 04:29:56;;;;;;;14.13;5.40;;;;;;;;;;4974237;28;20049;-77
2022/06/20 04:32:31;;;;;;;10.00;5.38;;;;;;;;;;4974036;28;20101;-77
2022/06/20 04:35:03;;;;;;;10.88;5.40;;;;;;;;;;4973278;28;20101;-77
2022/06/20 04:37:42;;;;;;;11.93;5.88;;;;;;;;;;4961662;28;20039;-77
2022/06/20 04:40:18;;;;;;;13.70;6.00;;;;;;;;;;4973512;28;20506;-75
2022/06/20 04:42:44;;;;;;;;;;;;;;;;;;4973697;28;20413;-76
2022/06/20 04:45:29;;;;;;;10.13;5.80;;;;;;;;;;4974319;28;20336;-76
2022/06/20 04:47:59;;;;;;;13.77;6.32;;;;;;;;;;4972406;28;20050;-77
2022/06/20 04:50:30;;;;;;;11.55;5.70;;;;;;;;;;4974815;28;20130;-77
2022/06/20 04:52:59;;;;;;;13.68;5.53;;;;;;;;;;4987120;28;20469;-76
2022/06/20 04:55:26;;;;;;;15.05;5.25;;;;;;;;;;4956260;28;20078;-76
2022/06/20 04:57:53;;;;;;;9.45;5.00;;;;;;;;;;4963300;28;20086;-77
2022/06/20 05:00:22;;;;;;;9.73;5.15;;;;;;;;;;4973309;28;20082;-77
2022/06/20 05:02:49;;;;;;;9.98;4.85;;;;;;;;;;4972698;28;20129;-76
2022/06/20 05:05:22;;;;;;;9.68;4.95;;;;;;;;;;4973800;28;20436;-76
2022/06/20 05:07:49;;;;;;;12.85;5.10;;;;;;;;;;4987788;28;20105;-77
2022/06/20 05:10:30;;;;;;;12.02;4.32;;;;;;;;;;4972575;28;20130;-77
2022/06/20 05:13:03;;;;;;;10.50;4.63;;;;;;;;;;4973321;28;20042;-76
2022/06/20 05:15:29;;;;;;;10.23;4.50;;;;;;;;;;4973746;28;20106;-78
2022/06/20 05:17:55;;;;;;;11.13;4.93;;;;;;;;;;4972437;28;20078;-76
2022/06/20 05:20:27;;;;;;;14.20;4.60;;;;;;;;;;4973232;28;20047;-77
2022/06/20 05:23:04;;;;;;;9.02;4.50;;;;;;;;;;4971616;28;20566;-78
2022/06/20 05:25:34;;;;;;;12.57;4.75;;;;;;;;;;4973825;28;20173;-77
2022/06/20 05:28:01;;;;;;;11.82;4.82;;;;;;;;;;4972367;28;20050;-78
2022/06/20 05:30:28;;;;;;;12.02;4.00;;;;;;;;;;4973809;28;20105;-77
2022/06/20 05:33:01;;;;;;;11.57;4.78;;;;;;;;;;4971307;28;20047;-77
2022/06/20 05:35:31;;;;;;;9.82;4.43;;;;;;;;;;4971583;28;20051;-77
2022/06/20 05:38:00;;;;;;;11.15;4.43;;;;;;;;;;4972290;28;20054;-78
2022/06/20 05:40:37;;;;;;;11.23;4.28;;;;;;;;;;4972654;28;20049;-78
2022/06/20 05:43:03;;;;;;;10.82;4.72;;;;;;;;;;4955700;28;20043;-77
2022/06/20 05:45:30;;;;;;;13.27;4.10;;;;;;;;;;4972909;28;20047;-78
2022/06/20 05:47:59;;;;;;;10.82;4.00;;;;;;;;;;4971491;28;20566;-77
2022/06/20 05:50:31;;;;;;;13.15;4.25;;;;;;;;;;4973236;28;20046;-78
2022/06/20 05:52:58;;;;;;;9.82;4.22;;;;;;;;;;4971350;28;20055;-78
2022/06/20 05:55:26;;;;;;;11.60;4.10;;;;;;;;;;4971662;28;20058;-77
2022/06/20 05:57:54;;;;;;;9.85;3.92;;;;;;;;;;4972278;28;20061;-77
2022/06/20 06:00:22;;;;;;;10.73;3.80;;;;;;;;;;4972861;28;20050;-78
2022/06/20 06:02:57;;;;;;;7.65;3.78;;;;;;;;;;4969026;28;20043;-77
2022/06/20 06:05:34;;;;;;;9.32;4.20;;;;;;;;;;4973309;28;20047;-79
2022/06/20 06:08:11;;;;;;;9.32;4.28;;;;;;;;;;4972720;28;20126;-77
2022/06/20 06:10:40;;;;;;;11.18;4.63;;;;;;;;;;4969679;28;20046;-78
2022/06/20 06:13:25;;;;;;;10.85;4.43;;;;;;;;;;4952442;28;20134;-77
2022/06/20 06:18:57;;;;;;;8.93;3.75;;;;;;;;;;4972682;28;20042;-78
2022/06/20 06:21:24;;;;;;;9.30;3.83;;;;;;;;;;4976516;28;20105;-82
2022/06/20 06:23:50;;;;;;;10.45;3.67;;;;;;;;;;4973045;28;20042;-80
2022/06/20 06:26:17;;;;;;;8.82;3.22;;;;;;;;;;4973680;28;20074;-79
2022/06/20 06:28:44;;;;;;;8.85;3.25;;;;;;;;;;4972236;28;20054;-80
2022/06/20 06:31:19;;;;;;;7.63;3.38;;;;;;;;;;4973325;28;20039;-79
2022/06/20 06:33:57;;;;;;;6.75;3.30;;;;;;;;;;4972736;28;20049;-79
2022/06/20 06:36:26;;;;;;;8.35;3.15;;;;;;;;;;4970554;28;20182;-78
2022/06/20 06:38:56;;;;;;;10.10;3.67;;;;;;;;;;4976101;28;20122;-78
2022/06/20 06:41:25;;;;;;;14.43;3.38;;;;;;;;;;4977361;28;20042;-79
2022/06/20 06:43:51;;;;;;;6.65;3.10;;;;;;;;;;4976501;28;20383;-78
2022/06/20 06:46:22;;;;;;;7.15;2.80;;;;;;;;;;4975863;28;20058;-79
2022/06/20 06:48:50;;;;;;;7.25;2.55;;;;;;;;;;4976066;28;20070;-79
2022/06/20 06:51:34;;;;;;;7.38;2.60;;;;;;;;;;4973880;28;20043;-79
2022/06/20 06:54:23;;;;;;;7.38;2.80;;;;;;;;;;4976639;28;20039;-79
2022/06/20 06:57:04;;;;;;;7.95;2.88;;;;;;;;;;4935620;29;20098;-79
2022/06/20 06:59:38;;;;;;;8.30;3.20;;;;;;;;;;4935421;29;20126;-81
2022/06/20 07:02:05;;;;;;;8.05;2.53;;;;;;;;;;4935574;29;20080;-79
2022/06/20 07:04:38;;;;;;;6.43;2.80;;;;;;;;;;4935656;29;20131;-77
2022/06/20 07:07:13;;;;;;;10.18;3.42;;;;;;;;;;4933147;29;20051;-77
2022/06/20 07:09:42;;;;;;;6.97;2.92;;;;;;;;;;4930440;29;20091;-80
2022/06/20 07:12:11;;;;;;;6.97;3.20;;;;;;;;;;4929236;29;20094;-81
2022/06/20 07:14:41;;;;;;;9.38;2.80;;;;;;;;;;4929386;29;20088;-78
2022/06/20 07:17:20;;;;;;;6.00;2.80;;;;;;;;;;4929458;29;20501;-84
2022/06/20 20:37:48;;;;;;;10.23;3.38;;;;;;;;;;5090731;27;20717;-85
2022/06/20 20:40:20;;;;;;;5.63;2.40;;;;;;;;;;5083042;28;20052;-86
2022/06/20 20:42:59;;;;;;;12.07;3.72;;;;;;;;;;5073017;28;20052;-82
2022/06/20 20:45:39;;;;;;;8.88;3.25;;;;;;;;;;5073392;28;20052;-85
2022/06/20 20:48:16;;;;;;;10.18;3.63;;;;;;;;;;5073568;28;20369;-85
2022/06/20 20:50:44;;;;;;;9.52;3.20;;;;;;;;;;5062902;28;20048;-85
2022/06/20 20:53:17;;;;;;;7.70;3.00;;;;;;;;;;5066887;28;20044;-85
2022/06/20 20:55:44;;;;;;;7.57;3.10;;;;;;;;;;5066996;28;20045;-85
2022/06/20 20:58:15;;;;;;;7.40;3.30;;;;;;;;;;5082128;28;20049;-85
2022/06/20 21:00:42;;;;;;;7.63;3.55;;;;;;;;;;5083103;28;20048;-85
2022/06/20 21:03:12;;;;;;;8.43;3.72;;;;;;;;;;5079369;28;20052;-85
2022/06/20 21:05:46;;;;;;;5.25;2.72;;;;;;;;;;5090730;28;20190;-85
2022/06/20 21:08:35;;;;;;;7.43;3.35;;;;;;;;;;5058033;28;20389;-85
2022/06/20 21:11:04;;;;;;;10.18;3.28;;;;;;;;;;5064754;28;20067;-85
2022/06/20 21:13:33;;;;;;;7.22;3.13;;;;;;;;;;5066696;28;20560;-85
2022/06/20 21:16:01;;;;;;;7.05;3.08;;;;;;;;;;5065644;28;20048;-85
2022/06/20 21:18:32;;;;;;;8.43;3.15;;;;;;;;;;5057221;28;20509;-85
2022/06/20 21:21:04;;;;;;;5.55;3.08;;;;;;;;;;5073896;28;20416;-85
2022/06/20 21:23:32;;;;;;;6.72;3.50;;;;;;;;;;5079553;28;20068;-85
2022/06/20 21:25:59;;;;;;;5.82;3.30;;;;;;;;;;5065121;28;20071;-85
2022/06/20 21:28:33;;;;;;;8.70;3.50;;;;;;;;;;5081942;28;20059;-84
2022/06/20 21:30:59;;;;;;;8.25;3.30;;;;;;;;;;5065809;28;20052;-85
2022/06/20 21:33:27;;;;;;;9.32;3.75;;;;;;;;;;5055689;28;20049;-85
2022/06/20 21:35:53;;;;;;;5.63;3.03;;;;;;;;;;5045692;28;20064;-85
2022/06/20 21:38:25;;;;;;;6.57;3.40;;;;;;;;;;5044866;28;20049;-85
2022/06/20 21:41:17;;;;;;;8.65;3.45;;;;;;;;;;5078605;28;20458;-85
2022/06/20 21:43:44;;;;;;;6.05;3.10;;;;;;;;;;5066394;28;20186;-85
2022/06/20 21:46:14;;;;;;;7.03;3.50;;;;;;;;;;5063840;28;20421;-85
2022/06/20 21:48:40;;;;;;;7.65;3.88;;;;;;;;;;5052540;28;20551;-85
2022/06/20 21:51:12;;;;;;;6.40;3.53;;;;;;;;;;5052150;28;20490;-85
2022/06/20 21:53:48;;;;;;;7.57;3.60;;;;;;;;;;5052543;28;20083;-84
2022/06/20 21:56:24;;;;;;;8.80;3.83;;;;;;;;;;5072370;28;20166;-85
2022/06/20 21:59:05;;;;;;;9.18;3.80;;;;;;;;;;5054816;28;20045;-85
2022/06/20 22:04:28;;;;;;;7.35;3.33;;;;;;;;;;5047445;28;20057;-85
2022/06/20 22:07:03;;;;;;;8.80;3.65;;;;;;;;;;5077767;28;20094;-85
2022/06/20 22:09:38;;;;;;;7.47;3.25;;;;;;;;;;5037413;28;20037;-85
2022/06/20 22:12:06;;;;;;;8.77;3.78;;;;;;;;;;5031982;28;20095;-85
2022/06/20 22:14:39;;;;;;;9.20;3.78;;;;;;;;;;5063587;28;20048;-85
2022/06/20 22:17:05;;;;;;;8.55;4.00;;;;;;;;;;5032056;28;20041;-85
2022/06/20 22:19:32;;;;;;;8.43;3.70;;;;;;;;;;5070291;28;20048;-85
2022/06/20 22:22:12;;;;;;;9.85;4.10;;;;;;;;;;5070721;28;20055;-85
2022/06/20 22:24:47;;;;;;;8.25;3.97;;;;;;;;;;5066111;28;20074;-85
2022/06/20 22:27:13;;;;;;;7.43;3.73;;;;;;;;;;5069727;28;20433;-85
2022/06/20 22:29:45;;;;;;;8.57;3.80;;;;;;;;;;5031589;28;20535;-85
2022/06/20 22:32:13;;;;;;;6.30;3.47;;;;;;;;;;5031784;28;20100;-85
2022/06/20 22:34:41;;;;;;;6.72;3.50;;;;;;;;;;5030471;28;20513;-85
2022/06/20 22:37:08;;;;;;;7.00;3.55;;;;;;;;;;5061379;28;20184;-85
2022/06/20 22:39:35;;;;;;;6.30;3.53;;;;;;;;;;5048702;28;20080;-85
2022/06/20 22:42:02;;;;;;;10.93;4.15;;;;;;;;;;5050471;28;20048;-84
2022/06/20 22:44:28;;;;;;;8.00;3.47;;;;;;;;;;5037933;28;20116;-85
2022/06/20 22:46:56;;;;;;;8.02;3.72;;;;;;;;;;5051332;28;20044;-84
2022/06/20 22:49:27;;;;;;;6.50;3.88;;;;;;;;;;5051500;28;20516;-85
2022/06/20 22:51:56;;;;;;;9.52;3.72;;;;;;;;;;5050106;28;20040;-85
2022/06/20 22:54:25;;;;;;;5.28;3.80;;;;;;;;;;5058939;28;20481;-84
2022/06/20 22:57:03;;;;;;;6.43;3.25;;;;;;;;;;5068129;28;20052;-85
2022/06/20 22:59:39;;;;;;;6.70;3.70;;;;;;;;;;5049955;28;20055;-85
2022/06/20 23:02:07;;;;;;;6.85;3.72;;;;;;;;;;5051098;28;20079;-85
2022/06/20 23:04:43;;;;;;;7.18;4.00;;;;;;;;;;5050014;28;20158;-85
2022/06/20 23:07:09;;;;;;;;;;;;;;;;;;5067404;28;20177;-85
2022/06/20 23:09:35;;;;;;;7.40;3.47;;;;;;;;;;5032097;28;19988;-84
2022/06/20 23:12:01;;;;;;;5.72;3.80;;;;;;;;;;5035103;28;20052;-85
2022/06/20 23:14:28;;;;;;;7.00;3.53;;;;;;;;;;5054270;28;20040;-84
2022/06/20 23:19:44;;;;;;;11.50;4.35;;;;;;;;;;5069526;28;20052;-84
2022/06/20 23:22:21;;;;;;;10.57;4.20;;;;;;;;;;5067652;28;20040;-84
2022/06/20 23:24:47;;;;;;;7.88;4.13;;;;;;;;;;5060210;28;20075;-85
2022/06/20 23:27:13;;;;;;;7.47;4.25;;;;;;;;;;5050815;28;20478;-85
2022/06/20 23:29:39;;;;;;;11.93;4.25;;;;;;;;;;5032167;28;20057;-85
2022/06/20 23:32:05;;;;;;;8.00;4.40;;;;;;;;;;5050589;28;20116;-85
2022/06/20 23:34:39;;;;;;;11.02;4.57;;;;;;;;;;5050535;28;20474;-85
2022/06/20 23:37:07;;;;;;;10.77;4.40;;;;;;;;;;5058138;28;20054;-85
2022/06/20 23:39:33;;;;;;;5.43;3.90;;;;;;;;;;5029691;28;20049;-85
2022/06/20 23:41:59;;;;;;;8.40;4.32;;;;;;;;;;5036953;28;20075;-85
2022/06/20 23:44:26;;;;;;;7.95;4.47;;;;;;;;;;5069319;28;20048;-85
2022/06/20 23:46:52;;;;;;;5.60;3.97;;;;;;;;;;5070482;28;20047;-85
2022/06/20 23:49:19;;;;;;;9.27;4.82;;;;;;;;;;5068312;28;20405;-85
2022/06/20 23:51:45;;;;;;;8.27;4.47;;;;;;;;;;5064933;28;20094;-85
2022/06/20 23:54:11;;;;;;;9.63;4.57;;;;;;;;;;5048813;28;20049;-85
2022/06/20 23:56:38;;;;;;;9.25;4.57;;;;;;;;;;5046607;28;20088;-85
2022/06/20 23:59:05;;;;;;;8.15;4.43;;;;;;;;;;5048496;28;20045;-85
